createdAt,value
2019-04-27T00:00:03.627Z,13.00
2019-04-27T00:02:55.838Z,14.10
2019-04-27T00:05:32.267Z,15.23
2019-04-27T00:08:03.758Z,14.93
2019-04-27T00:10:33.785Z,14.17
2019-04-27T00:13:05.663Z,14.67
2019-04-27T00:15:36.717Z,13.93
2019-04-27T00:18:09.410Z,15.33
2019-04-27T00:20:38.510Z,13.83
2019-04-27T00:23:08.555Z,14.50
2019-04-27T00:25:36.965Z,14.47
2019-04-27T00:28:05.608Z,14.53
2019-04-27T00:30:35.610Z,14.90
2019-04-27T00:33:05.424Z,15.00
2019-04-27T00:35:38.512Z,14.80
2019-04-27T00:38:17.744Z,14.57
2019-04-27T00:40:47.775Z,15.40
2019-04-27T00:43:16.166Z,14.97
2019-04-27T00:45:44.567Z,14.57
2019-04-27T00:48:13.330Z,14.47
2019-04-27T00:50:41.842Z,16.23
2019-04-27T00:53:10.235Z,14.80
2019-04-27T00:55:40.288Z,14.67
2019-04-27T00:58:19.085Z,15.53
2019-04-27T01:00:58.043Z,15.70
2019-04-27T01:03:30.843Z,15.17
2019-04-27T01:05:59.482Z,14.87
2019-04-27T01:08:27.887Z,16.40
2019-04-27T01:10:56.388Z,14.93
2019-04-27T01:13:24.794Z,15.50
2019-04-27T01:15:54.155Z,15.73
2019-04-27T01:18:22.604Z,15.90
2019-04-27T01:20:50.994Z,15.93
2019-04-27T01:23:19.415Z,14.77
2019-04-27T01:26:05.641Z,16.50
2019-04-27T01:28:35.671Z,14.93
2019-04-27T01:31:05.746Z,15.13
2019-04-27T01:33:34.150Z,14.93
2019-04-27T01:36:02.560Z,15.50
2019-04-27T01:38:30.965Z,14.57
2019-04-27T01:41:00.613Z,14.70
2019-04-27T01:43:30.250Z,15.33
2019-04-27T01:46:01.013Z,15.60
2019-04-27T01:48:30.560Z,15.30
2019-04-27T01:50:59.417Z,15.27
2019-04-27T01:53:28.912Z,14.70
2019-04-27T01:55:59.217Z,15.80
2019-04-27T01:58:29.315Z,17.63
2019-04-27T02:01:11.381Z,16.13
2019-04-27T02:03:41.415Z,15.67
2019-04-27T02:06:09.968Z,15.63
2019-04-27T02:08:40.236Z,16.60
2019-04-27T02:11:09.235Z,16.87
2019-04-27T02:13:38.901Z,17.07
2019-04-27T02:16:09.000Z,17.57
2019-04-27T02:18:39.634Z,18.70
2019-04-27T02:21:09.118Z,19.10
2019-04-27T02:23:39.279Z,18.47
2019-04-27T02:26:08.619Z,18.77
2019-04-27T02:28:47.459Z,19.33
2019-04-27T02:31:20.413Z,18.80
2019-04-27T02:33:53.285Z,20.30
2019-04-27T02:36:21.759Z,20.17
2019-04-27T02:38:50.173Z,21.63
2019-04-27T02:41:19.898Z,20.87
2019-04-27T02:43:50.125Z,21.20
2019-04-27T02:46:20.005Z,21.50
2019-04-27T02:48:58.596Z,21.57
2019-04-27T02:51:36.516Z,23.40
2019-04-27T02:54:05.073Z,22.87
2019-04-27T02:56:33.498Z,23.00
2019-04-27T02:59:01.891Z,23.00
2019-04-27T03:01:31.936Z,24.67
2019-04-27T03:04:00.681Z,24.30
2019-04-27T03:06:29.968Z,23.97
2019-04-27T03:09:00.425Z,24.30
2019-04-27T03:11:30.715Z,23.97
2019-04-27T03:14:29.470Z,24.10
2019-04-27T03:17:04.780Z,26.97
2019-04-27T03:19:40.511Z,27.13
2019-04-27T03:22:19.155Z,27.80
2019-04-27T03:25:00.644Z,27.83
2019-04-27T03:27:40.636Z,27.00
2019-04-27T03:30:12.516Z,28.30
2019-04-27T03:32:43.195Z,28.27
2019-04-27T03:35:13.114Z,27.67
2019-04-27T03:37:42.196Z,28.50
2019-04-27T03:40:10.810Z,29.10
2019-04-27T03:42:40.847Z,29.57
2019-04-27T03:45:10.763Z,29.37
2019-04-27T03:47:40.765Z,29.07
2019-04-27T03:50:11.577Z,28.70
2019-04-27T03:52:41.711Z,28.60
2019-04-27T03:55:11.814Z,30.10
2019-04-27T03:57:50.470Z,28.93
2019-04-27T04:00:30.161Z,28.93
2019-04-27T04:03:00.578Z,29.00
2019-04-27T04:05:30.112Z,30.67
2019-04-27T04:08:00.502Z,29.00
2019-04-27T04:10:30.613Z,31.00
2019-04-27T04:13:01.641Z,29.47
2019-04-27T04:15:31.911Z,29.30
2019-04-27T04:18:00.333Z,29.93
2019-04-27T04:20:30.471Z,29.53
2019-04-27T04:23:00.176Z,30.33
2019-04-27T04:25:32.668Z,30.90
2019-04-27T04:28:00.635Z,31.33
2019-04-27T04:30:30.236Z,31.43
2019-04-27T04:32:59.909Z,31.53
2019-04-27T04:35:32.528Z,32.90
2019-04-27T04:38:00.267Z,31.57
2019-04-27T04:40:30.832Z,33.53
2019-04-27T04:43:03.443Z,36.33
2019-04-27T04:45:35.738Z,34.20
2019-04-27T04:48:05.788Z,33.30
2019-04-27T04:50:34.267Z,36.13
2019-04-27T04:53:02.683Z,34.93
2019-04-27T04:55:31.085Z,36.00
2019-04-27T04:57:59.492Z,35.93
2019-04-27T05:00:29.870Z,35.53
2019-04-27T05:02:59.515Z,35.57
2019-04-27T05:05:29.286Z,34.67
2019-04-27T05:07:58.762Z,36.27
2019-04-27T05:10:28.801Z,35.37
2019-04-27T05:12:59.075Z,35.03
2019-04-27T05:15:29.211Z,35.57
2019-04-27T05:17:59.207Z,35.33
2019-04-27T05:20:29.558Z,33.00
2019-04-27T05:22:59.417Z,34.77
2019-04-27T05:25:28.700Z,34.20
2019-04-27T05:27:57.084Z,34.53
2019-04-27T05:30:25.478Z,33.93
2019-04-27T05:32:53.891Z,33.07
2019-04-27T05:35:22.276Z,32.57
2019-04-27T05:37:50.740Z,32.17
2019-04-27T05:40:19.133Z,32.80
2019-04-27T05:42:48.917Z,31.77
2019-04-27T05:45:43.068Z,31.80
2019-04-27T05:48:13.165Z,29.70
2019-04-27T05:50:45.635Z,31.27
2019-04-27T05:53:11.707Z,30.77
2019-04-27T05:55:40.103Z,30.03
2019-04-27T05:58:09.334Z,30.33
2019-04-27T06:00:39.371Z,30.00
2019-04-27T06:03:09.062Z,30.30
2019-04-27T06:05:39.109Z,30.10
2019-04-27T06:08:08.741Z,30.67
2019-04-27T06:10:38.685Z,30.23
2019-04-27T06:13:08.447Z,29.37
2019-04-27T06:15:38.854Z,28.33
2019-04-27T06:18:07.273Z,29.30
2019-04-27T06:20:48.378Z,28.27
2019-04-27T06:23:05.773Z,27.93
2019-04-27T06:25:34.193Z,27.50
2019-04-27T06:28:02.563Z,27.27
2019-04-27T06:30:30.954Z,26.53
2019-04-27T06:32:59.526Z,26.83
2019-04-27T06:35:28.845Z,25.97
2019-04-27T06:37:58.604Z,26.60
2019-04-27T06:40:28.931Z,25.27
2019-04-27T06:42:57.167Z,25.17
2019-04-27T06:45:25.582Z,25.30
2019-04-27T06:47:53.985Z,22.73
2019-04-27T06:50:22.373Z,25.23
2019-04-27T06:52:50.772Z,24.07
2019-04-27T06:55:19.155Z,24.00
2019-04-27T07:03:59.670Z,21.70
2019-04-27T07:06:28.623Z,21.60
2019-04-27T07:08:57.033Z,22.20
2019-04-27T07:11:25.447Z,20.90
2019-04-27T07:13:53.844Z,20.10
2019-04-27T07:16:22.234Z,19.10
2019-04-27T07:18:50.624Z,19.07
2019-04-27T07:21:24.288Z,18.60
2019-04-27T07:23:59.412Z,19.17
2019-04-27T07:26:30.195Z,17.60
2019-04-27T07:28:59.631Z,18.82
2019-04-27T07:31:29.496Z,16.93
2019-04-27T07:33:59.512Z,17.00
2019-04-27T07:36:29.013Z,16.23
2019-04-27T07:38:59.662Z,17.63
2019-04-27T07:41:29.179Z,16.37
2019-04-27T07:44:02.097Z,15.67
2019-04-27T07:46:31.830Z,15.30
2019-04-27T07:49:00.197Z,15.47
2019-04-27T07:51:33.644Z,15.13
2019-04-27T07:53:58.994Z,14.20
2019-04-27T07:56:29.095Z,15.63
2019-04-27T07:58:59.394Z,14.37
2019-04-27T08:01:29.408Z,13.90
2019-04-27T08:03:59.080Z,14.00
2019-04-27T08:06:28.943Z,13.80
2019-04-27T08:08:59.178Z,13.10
2019-04-27T08:11:29.250Z,13.00
2019-04-27T08:13:58.799Z,14.20
2019-04-27T08:16:29.099Z,12.67
2019-04-27T08:18:59.809Z,12.83
2019-04-27T08:21:28.910Z,13.03
2019-04-27T08:23:58.609Z,15.40
2019-04-27T08:26:28.974Z,16.20
2019-04-27T08:28:59.012Z,16.03
2019-04-27T08:31:29.300Z,14.70
2019-04-27T08:33:58.285Z,17.13
2019-04-27T08:36:28.909Z,20.27
2019-04-27T08:38:58.861Z,23.17
2019-04-27T08:41:29.474Z,24.30
2019-04-27T08:43:58.754Z,24.67
2019-04-27T08:46:28.631Z,26.70
2019-04-27T08:48:58.717Z,27.00
2019-04-27T08:51:29.008Z,30.10
2019-04-27T08:53:59.000Z,26.23
2019-04-27T08:56:27.485Z,25.83
2019-04-27T08:58:55.883Z,25.47
2019-04-27T09:01:25.245Z,26.17
2019-04-27T09:03:53.638Z,26.93
2019-04-27T09:06:22.341Z,28.07
2019-04-27T09:08:52.383Z,25.83
2019-04-27T09:11:22.412Z,28.30
2019-04-27T09:14:01.601Z,28.23
2019-04-27T09:16:31.653Z,27.70
2019-04-27T09:19:10.681Z,27.70
2019-04-27T09:22:10.325Z,24.57
2019-04-27T09:24:29.227Z,26.30
2019-04-27T09:26:59.508Z,24.83
2019-04-27T09:29:29.591Z,23.73
2019-04-27T09:31:59.607Z,22.13
2019-04-27T09:34:28.178Z,22.60
2019-04-27T09:36:56.716Z,20.93
2019-04-27T09:39:26.470Z,18.20
2019-04-27T09:41:57.020Z,17.83
2019-04-27T09:44:26.696Z,17.13
2019-04-27T09:46:56.079Z,12.57
2019-04-27T09:49:26.258Z,11.13
2019-04-27T09:51:55.715Z,16.00
2019-04-27T09:54:24.154Z,17.13
2019-04-27T09:56:52.544Z,17.37
2019-04-27T09:59:20.975Z,16.67
2019-04-27T10:01:49.369Z,16.47
2019-04-27T10:04:17.756Z,16.73
2019-04-27T10:06:48.582Z,18.67
2019-04-27T10:09:16.268Z,16.43
2019-04-27T10:11:44.657Z,18.07
2019-04-27T10:14:13.049Z,15.47
2019-04-27T10:16:41.442Z,17.17
2019-04-27T10:19:09.834Z,17.47
2019-04-27T10:21:38.305Z,18.53
2019-04-27T10:24:06.770Z,17.97
2019-04-27T10:26:36.200Z,17.03
2019-04-27T10:29:06.197Z,16.37
2019-04-27T10:31:34.763Z,16.37
2019-04-27T10:34:03.150Z,15.90
2019-04-27T10:36:40.636Z,16.80
2019-04-27T10:39:13.458Z,16.40
2019-04-27T10:41:42.117Z,15.63
2019-04-27T10:44:10.660Z,14.67
2019-04-27T10:46:39.123Z,13.27
2019-04-27T10:49:07.955Z,13.07
2019-04-27T10:51:36.495Z,13.33
2019-04-27T10:54:06.829Z,12.60
2019-04-27T10:56:36.117Z,13.03
2019-04-27T10:59:06.521Z,13.07
2019-04-27T11:01:36.055Z,13.27
2019-04-27T11:04:09.594Z,14.00
2019-04-27T11:06:45.761Z,13.83
2019-04-27T11:09:16.201Z,13.77
2019-04-27T11:11:46.310Z,13.77
2019-04-27T11:14:15.950Z,13.40
2019-04-27T11:16:45.945Z,12.60
2019-04-27T11:19:16.730Z,12.87
2019-04-27T11:21:44.784Z,11.80
2019-04-27T11:24:13.186Z,11.60
2019-04-27T11:26:41.574Z,11.50
2019-04-27T11:29:09.982Z,10.90
2019-04-27T11:31:38.529Z,8.07
2019-04-27T11:34:06.985Z,6.07
2019-04-27T11:36:37.007Z,6.17
2019-04-27T11:39:08.467Z,8.90
2019-04-27T11:41:36.858Z,8.00
2019-04-27T11:44:05.244Z,8.17
2019-04-27T11:46:33.681Z,6.80
2019-04-27T11:49:02.066Z,5.80
2019-04-27T11:51:30.448Z,4.80
2019-04-27T11:53:58.832Z,4.63
2019-04-27T11:56:27.491Z,4.27
2019-04-27T11:58:56.102Z,4.20
2019-04-27T12:01:24.553Z,4.40
2019-04-27T12:03:52.936Z,4.37
2019-04-27T12:06:21.315Z,4.33
2019-04-27T12:08:49.709Z,5.10
2019-04-27T12:11:18.089Z,4.60
2019-04-27T12:13:46.493Z,4.23
2019-04-27T12:16:15.645Z,4.40
2019-04-27T12:18:48.863Z,4.33
2019-04-27T12:21:15.162Z,4.20
2019-04-27T12:23:43.556Z,4.40
2019-04-27T12:26:13.584Z,3.70
2019-04-27T12:28:52.561Z,3.40
2019-04-27T12:31:25.840Z,3.60
2019-04-27T12:33:55.922Z,3.73
2019-04-27T12:36:25.810Z,3.43
2019-04-27T12:38:54.356Z,3.10
2019-04-27T12:41:22.729Z,2.87
2019-04-27T12:43:51.106Z,2.97
2019-04-27T12:46:19.496Z,2.60
2019-04-27T12:48:47.947Z,2.60
2019-04-27T12:51:16.403Z,2.87
2019-04-27T12:53:52.847Z,3.10
2019-04-27T12:56:21.089Z,2.83
2019-04-27T12:58:54.022Z,2.63
2019-04-27T13:01:27.065Z,4.07
2019-04-27T13:03:58.926Z,4.20
2019-04-27T13:06:25.657Z,2.00
2019-04-27T13:08:55.703Z,1.83
2019-04-27T13:11:24.302Z,1.47
2019-04-27T13:13:52.700Z,1.20
2019-04-27T13:16:21.085Z,1.00
2019-04-27T13:18:49.468Z,0.70
2019-04-27T13:21:20.789Z,0.60
2019-04-27T13:24:00.832Z,0.90
2019-04-27T13:26:18.076Z,0.90
2019-04-27T13:28:46.774Z,0.85
2019-04-27T13:31:15.692Z,0.80
2019-04-27T13:33:44.156Z,0.80
2019-04-27T13:36:12.568Z,0.90
2019-04-27T13:38:40.956Z,1.30
2019-04-27T13:41:10.021Z,1.40
2019-04-27T13:43:39.243Z,1.53
2019-04-27T13:46:09.711Z,1.50
2019-04-27T13:48:56.246Z,1.40
2019-04-27T13:51:41.160Z,1.33
2019-04-27T13:54:18.743Z,1.27
2019-04-27T13:56:39.652Z,1.40
2019-04-27T13:59:08.109Z,1.50
2019-04-27T14:01:36.571Z,1.20
2019-04-27T14:04:06.866Z,1.43
2019-04-27T14:06:35.195Z,1.27
2019-04-27T14:09:05.091Z,1.30
2019-04-27T14:11:33.494Z,1.40
2019-04-27T14:14:01.961Z,1.27
2019-04-27T14:16:30.363Z,1.57
2019-04-27T14:18:59.434Z,1.40
2019-04-27T14:21:29.528Z,1.40
2019-04-27T14:23:58.616Z,1.80
2019-04-27T14:26:28.458Z,1.50
2019-04-27T14:28:58.338Z,1.67
2019-04-27T14:31:26.826Z,1.70
2019-04-27T14:33:55.204Z,1.80
2019-04-27T14:36:23.597Z,1.87
2019-04-27T14:38:51.987Z,1.67
2019-04-27T14:41:20.396Z,1.90
2019-04-27T14:44:05.027Z,2.33
2019-04-27T14:46:18.859Z,2.20
2019-04-27T14:48:47.246Z,2.00
2019-04-27T14:51:15.627Z,2.37
2019-04-27T14:53:44.014Z,2.00
2019-04-27T14:56:12.395Z,1.50
2019-04-27T14:58:40.789Z,2.07
2019-04-27T15:01:09.167Z,1.60
2019-04-27T15:03:37.544Z,1.63
2019-04-27T15:06:05.941Z,0.97
2019-04-27T15:08:34.330Z,0.50
2019-04-27T15:11:04.175Z,0.50
2019-04-27T15:13:32.834Z,0.40
2019-04-27T15:16:02.604Z,0.67
2019-04-27T15:18:34.659Z,0.50
2019-04-27T15:21:03.755Z,0.50
2019-04-27T15:23:32.308Z,0.37
2019-04-27T15:26:00.696Z,0.43
2019-04-27T15:28:32.054Z,0.33
2019-04-27T15:31:02.113Z,0.43
2019-04-27T15:33:51.459Z,0.45
2019-04-27T15:36:23.073Z,0.40
2019-04-27T15:39:09.669Z,0.30
2019-04-27T15:41:39.755Z,0.30
2019-04-27T15:44:09.388Z,0.30
2019-04-27T15:46:39.072Z,0.33
2019-04-27T15:49:11.274Z,0.40
2019-04-27T15:51:38.278Z,0.40
2019-04-27T15:54:06.786Z,0.47
2019-04-27T15:56:35.528Z,0.50
2019-04-27T15:59:05.425Z,0.40
2019-04-27T16:01:35.708Z,0.43
2019-04-27T16:04:07.694Z,0.40
2019-04-27T16:06:34.544Z,0.40
2019-04-27T16:09:02.927Z,0.50
2019-04-27T16:11:31.339Z,0.50
2019-04-27T16:14:03.012Z,0.50
2019-04-27T16:16:33.471Z,0.70
2019-04-27T16:19:03.621Z,0.50
2019-04-27T16:21:31.596Z,0.50
2019-04-27T16:24:00.048Z,0.70
2019-04-27T16:26:28.595Z,0.70
2019-04-27T16:28:58.102Z,0.60
2019-04-27T16:31:31.465Z,0.90
2019-04-27T16:33:59.146Z,0.63
2019-04-27T16:36:26.705Z,0.90
2019-04-27T16:38:56.734Z,0.83
2019-04-27T16:41:25.188Z,0.80
2019-04-27T16:43:53.646Z,0.90
2019-04-27T16:46:22.115Z,1.10
2019-04-27T16:48:50.506Z,0.90
2019-04-27T16:51:18.882Z,1.10
2019-04-27T16:53:47.579Z,1.03
2019-04-27T16:56:18.577Z,0.97
2019-04-27T16:58:51.111Z,1.00
2019-04-27T17:01:20.329Z,0.93
2019-04-27T17:03:48.718Z,0.90
2019-04-27T17:06:19.097Z,1.30
2019-04-27T17:08:49.465Z,1.10
2019-04-27T17:11:19.546Z,1.00
2019-04-27T17:13:51.986Z,1.43
2019-04-27T17:16:31.222Z,1.00
2019-04-27T17:19:04.940Z,0.97
2019-04-27T17:21:28.886Z,0.87
2019-04-27T17:24:02.807Z,0.93
2019-04-27T17:26:29.135Z,1.10
2019-04-27T17:29:11.083Z,1.20
2019-04-27T17:31:38.165Z,1.23
2019-04-27T17:34:08.174Z,1.10
2019-04-27T17:36:38.506Z,1.30
2019-04-27T17:39:10.643Z,1.13
2019-04-27T17:41:42.141Z,1.00
2019-04-27T17:44:12.670Z,1.00
2019-04-27T17:46:42.743Z,1.20
2019-04-27T17:49:09.445Z,1.10
2019-04-27T17:51:42.957Z,1.00
2019-04-27T17:54:11.363Z,1.00
2019-04-27T17:56:48.255Z,1.00
2019-04-27T17:59:11.978Z,1.27
2019-04-27T18:01:38.865Z,1.20
2019-04-27T18:04:10.407Z,1.10
2019-04-27T18:06:39.038Z,1.07
2019-04-27T18:09:09.842Z,0.90
2019-04-27T18:11:38.501Z,1.30
2019-04-27T18:14:11.146Z,1.70
2019-04-27T18:16:38.047Z,1.20
2019-04-27T18:19:11.239Z,0.90
2019-04-27T18:21:39.858Z,0.70
2019-04-27T18:24:09.879Z,0.40
2019-04-27T18:26:49.258Z,0.30
2019-04-27T18:29:12.725Z,0.37
2019-04-27T18:31:41.111Z,0.40
2019-04-27T18:34:15.241Z,0.47
2019-04-27T18:36:43.896Z,0.37
2019-04-27T18:39:13.450Z,0.60
2019-04-27T18:41:44.428Z,0.50
2019-04-27T18:44:11.194Z,0.50
2019-04-27T18:46:39.818Z,0.53
2019-04-27T18:49:12.553Z,0.60
2019-04-27T18:51:42.575Z,0.57
2019-04-27T18:54:10.969Z,0.50
2019-04-27T18:56:41.581Z,0.57
2019-04-27T18:59:09.577Z,0.50
2019-04-27T19:01:37.960Z,0.77
2019-04-27T19:04:08.539Z,0.97
2019-04-27T19:06:36.467Z,0.60
2019-04-27T19:09:08.314Z,0.63
2019-04-27T19:11:38.247Z,1.00
2019-04-27T19:14:08.341Z,0.90
2019-04-27T19:16:38.388Z,0.60
2019-04-27T19:19:08.734Z,0.90
2019-04-27T19:21:39.113Z,0.83
2019-04-27T19:24:08.862Z,1.30
2019-04-27T19:26:48.513Z,0.90
2019-04-27T19:29:18.943Z,0.90
2019-04-27T19:31:54.657Z,1.00
2019-04-27T19:34:23.043Z,1.10
2019-04-27T19:36:59.281Z,1.07
2019-04-27T19:39:28.574Z,1.20
2019-04-27T19:42:01.388Z,1.50
2019-04-27T19:44:28.974Z,1.10
2019-04-27T19:46:57.510Z,1.60
2019-04-27T19:49:32.715Z,1.43
2019-04-27T19:52:01.178Z,1.17
2019-04-27T19:54:30.241Z,1.00
2019-04-27T19:57:04.619Z,1.23
2019-04-27T19:59:46.178Z,1.10
2019-04-27T20:02:16.205Z,1.27
2019-04-27T20:04:45.853Z,1.03
2019-04-27T20:07:14.243Z,1.20
2019-04-27T20:09:44.265Z,1.40
2019-04-27T20:12:13.774Z,1.20
2019-04-27T20:14:57.321Z,1.20
2019-04-27T20:17:31.111Z,1.20
2019-04-27T20:19:59.996Z,1.20
2019-04-27T20:22:28.384Z,1.13
2019-04-27T20:24:56.764Z,1.10
2019-04-27T20:27:25.158Z,1.13
2019-04-27T20:29:53.544Z,1.60
2019-04-27T20:32:21.993Z,1.40
2019-04-27T20:34:51.296Z,1.30
2019-04-27T20:37:20.996Z,1.40
2019-04-27T20:39:51.251Z,1.73
2019-04-27T20:42:21.108Z,1.57
2019-04-27T20:44:51.418Z,1.60
2019-04-27T20:47:19.942Z,1.60
2019-04-27T20:49:48.338Z,1.53
2019-04-27T20:52:18.356Z,1.43
2019-04-27T20:54:46.736Z,1.60
2019-04-27T20:57:15.109Z,1.63
2019-04-27T20:59:43.494Z,1.80
2019-04-27T21:02:29.590Z,1.33
2019-04-27T21:05:02.599Z,1.50
2019-04-27T21:07:38.547Z,1.60
2019-04-27T21:10:08.058Z,1.37
2019-04-27T21:12:36.433Z,1.63
2019-04-27T21:15:05.557Z,1.70
2019-04-27T21:17:33.934Z,1.70
2019-04-27T21:20:02.315Z,1.40
2019-04-27T21:22:31.475Z,1.20
2019-04-27T21:25:01.516Z,1.90
2019-04-27T21:27:31.811Z,1.70
2019-04-27T21:30:02.569Z,1.60
2019-04-27T21:32:30.429Z,1.80
2019-04-27T21:34:58.809Z,1.70
2019-04-27T21:37:27.185Z,1.70
2019-04-27T21:40:10.489Z,1.80
2019-04-27T21:42:41.087Z,1.67
2019-04-27T21:45:11.243Z,1.60
2019-04-27T21:47:41.357Z,1.90
2019-04-27T21:50:11.969Z,1.50
2019-04-27T21:52:42.024Z,1.80
2019-04-27T21:55:12.118Z,2.00
2019-04-27T21:57:40.999Z,1.77
2019-04-27T22:00:16.712Z,2.03
2019-04-27T22:02:45.105Z,2.07
2019-04-27T22:05:13.475Z,2.03
2019-04-27T22:07:41.912Z,2.00
2019-04-27T22:10:10.686Z,2.00
2019-04-27T22:12:39.057Z,2.00
2019-04-27T22:15:07.875Z,1.73
2019-04-27T22:17:36.258Z,2.03
2019-04-27T22:20:07.247Z,2.10
2019-04-27T22:22:37.270Z,2.20
2019-04-27T22:25:08.151Z,2.40
2019-04-27T22:27:36.612Z,2.00
2019-04-27T22:30:06.995Z,2.40
2019-04-27T22:32:35.460Z,2.10
2019-04-27T22:35:04.742Z,2.60
2019-04-27T22:37:33.121Z,2.17
2019-04-27T22:40:05.793Z,2.40
2019-04-27T22:42:51.524Z,2.87
2019-04-27T22:45:21.599Z,2.30
2019-04-27T22:47:51.244Z,2.70
2019-04-27T22:50:21.058Z,2.70
2019-04-27T22:52:49.489Z,2.57
2019-04-27T22:55:17.875Z,2.50
2019-04-27T22:57:47.895Z,3.00
2019-04-27T23:00:18.380Z,2.73
2019-04-27T23:02:48.392Z,2.90
2019-04-27T23:05:16.795Z,2.50
2019-04-27T23:07:45.174Z,2.40
2019-04-27T23:10:13.792Z,2.60
2019-04-27T23:12:42.172Z,2.50
2019-04-27T23:15:12.339Z,2.30
2019-04-27T23:17:48.183Z,2.53
2019-04-27T23:20:16.566Z,2.57
2019-04-27T23:22:44.932Z,2.47
2019-04-27T23:25:13.312Z,2.70
2019-04-27T23:27:41.688Z,2.70
2019-04-27T23:30:11.308Z,2.37
2019-04-27T23:32:41.473Z,2.50
2019-04-27T23:35:10.200Z,2.57
2019-04-27T23:37:38.545Z,2.33
2019-04-27T23:40:07.066Z,2.20
2019-04-27T23:42:35.451Z,2.97
2019-04-27T23:45:05.396Z,2.67
2019-04-27T23:47:33.781Z,2.40
2019-04-27T23:50:02.156Z,1.90
2019-04-27T23:52:37.981Z,2.40
2019-04-27T23:55:06.426Z,2.03
2019-04-27T23:57:34.807Z,2.20
